ATS weather

Artesia Municipal Airport
Artesia, New Mexico, United States

Public forecast

Using degrees Fahrenheit for public forecast. Weather courtesy of forecast.io.

Current aviation weather report (METAR) for Artesia Municipal Airport

Retrieved 2019/12/14 20:35 UTC (15 minutes ago):

KATS 142035Z AUTO 00000G10KT 10SM CLR 21/03 A2973 RMK AO2

Closest aviation forecast (TAF) to Artesia Municipal Airport

Closest forecast is Roswell International Air Center Airport, 27.1 nm (50.3 km) N. Retrieved 2019/12/14 18:45 UTC (2 hours ago):

TAF KROW 141743Z 1418/1518 02008KT P6SM FEW250 FM141900 24010G16KT P6SM SKC FM150200 21008KT P6SM SKC FM151200 22008KT P6SM SCT150